sensor_id;sensor_type;location;lat;lon;timestamp;pressure;altitude;pressure_sealevel;temperature;humidity
66196;BME280;53000;45.182;5.736;2023-12-20T00:02:03;99905.00;;;8.31;54.94
66196;BME280;53000;45.182;5.736;2023-12-20T00:04:29;99888.38;;;8.16;54.98
66196;BME280;53000;45.182;5.736;2023-12-20T00:06:54;99911.69;;;8.27;54.82
66196;BME280;53000;45.182;5.736;2023-12-20T00:09:19;99892.22;;;8.24;55.15
66196;BME280;53000;45.182;5.736;2023-12-20T00:11:45;99894.91;;;8.24;54.54
66196;BME280;53000;45.182;5.736;2023-12-20T00:14:11;99903.56;;;8.17;54.75
66196;BME280;53000;45.182;5.736;2023-12-20T00:16:36;99912.06;;;8.13;55.22
66196;BME280;53000;45.182;5.736;2023-12-20T00:19:02;99915.72;;;8.12;54.50
66196;BME280;53000;45.182;5.736;2023-12-20T00:21:27;99921.72;;;8.06;55.23
66196;BME280;53000;45.182;5.736;2023-12-20T00:23:52;99936.56;;;8.00;54.94
66196;BME280;53000;45.182;5.736;2023-12-20T00:26:18;99930.19;;;8.01;55.26
66196;BME280;53000;45.182;5.736;2023-12-20T00:28:43;99916.00;;;7.99;55.92
66196;BME280;53000;45.182;5.736;2023-12-20T00:31:08;99923.38;;;7.97;55.42
66196;BME280;53000;45.182;5.736;2023-12-20T00:33:34;99923.50;;;7.95;55.01
66196;BME280;53000;45.182;5.736;2023-12-20T00:35:59;99920.09;;;7.93;55.07
66196;BME280;53000;45.182;5.736;2023-12-20T00:38:24;99922.19;;;7.90;55.32
66196;BME280;53000;45.182;5.736;2023-12-20T00:40:50;99928.72;;;7.87;55.41
66196;BME280;53000;45.182;5.736;2023-12-20T00:43:15;99926.03;;;7.87;55.33
66196;BME280;53000;45.182;5.736;2023-12-20T00:45:41;99915.38;;;7.86;55.86
66196;BME280;53000;45.182;5.736;2023-12-20T00:48:07;99910.16;;;7.84;55.86
66196;BME280;53000;45.182;5.736;2023-12-20T00:50:32;99903.63;;;7.87;55.74
66196;BME280;53000;45.182;5.736;2023-12-20T00:52:57;99895.66;;;7.85;56.35
66196;BME280;53000;45.182;5.736;2023-12-20T00:55:23;99901.47;;;7.81;55.98
66196;BME280;53000;45.182;5.736;2023-12-20T00:57:48;99899.72;;;7.70;55.93
66196;BME280;53000;45.182;5.736;2023-12-20T01:00:14;99895.47;;;7.67;55.83
66196;BME280;53000;45.182;5.736;2023-12-20T01:02:39;99903.25;;;7.61;56.47
66196;BME280;53000;45.182;5.736;2023-12-20T01:05:05;99897.50;;;7.54;57.00
66196;BME280;53000;45.182;5.736;2023-12-20T01:07:32;99897.38;;;7.55;56.46
66196;BME280;53000;45.182;5.736;2023-12-20T01:09:57;99901.09;;;7.54;55.96
66196;BME280;53000;45.182;5.736;2023-12-20T01:12:23;99911.56;;;7.57;56.34
66196;BME280;53000;45.182;5.736;2023-12-20T01:14:48;99903.09;;;7.62;56.80
66196;BME280;53000;45.182;5.736;2023-12-20T01:17:13;99905.53;;;7.65;56.78
66196;BME280;53000;45.182;5.736;2023-12-20T01:19:39;99922.25;;;7.69;56.67
66196;BME280;53000;45.182;5.736;2023-12-20T01:22:05;99920.56;;;7.68;56.53
66196;BME280;53000;45.182;5.736;2023-12-20T01:24:30;99931.06;;;7.71;57.17
66196;BME280;53000;45.182;5.736;2023-12-20T01:26:56;99921.28;;;7.70;56.53
66196;BME280;53000;45.182;5.736;2023-12-20T01:29:21;99922.72;;;7.74;56.82
66196;BME280;53000;45.182;5.736;2023-12-20T01:31:47;99913.78;;;7.73;57.07
66196;BME280;53000;45.182;5.736;2023-12-20T01:34:12;99916.31;;;7.75;57.29
66196;BME280;53000;45.182;5.736;2023-12-20T01:36:37;99922.44;;;7.77;57.73
66196;BME280;53000;45.182;5.736;2023-12-20T01:39:03;99923.16;;;7.79;57.59
66196;BME280;53000;45.182;5.736;2023-12-20T01:41:29;99920.59;;;7.77;57.13
66196;BME280;53000;45.182;5.736;2023-12-20T01:43:54;99919.88;;;7.75;56.80
66196;BME280;53000;45.182;5.736;2023-12-20T01:46:20;99933.22;;;7.77;57.14
66196;BME280;53000;45.182;5.736;2023-12-20T01:48:47;99934.28;;;7.65;58.07
66196;BME280;53000;45.182;5.736;2023-12-20T01:51:12;99929.31;;;7.60;57.61
66196;BME280;53000;45.182;5.736;2023-12-20T01:53:39;99933.59;;;7.63;57.45
66196;BME280;53000;45.182;5.736;2023-12-20T01:56:06;99932.88;;;7.61;57.60
66196;BME280;53000;45.182;5.736;2023-12-20T01:58:32;99927.75;;;7.57;57.42
66196;BME280;53000;45.182;5.736;2023-12-20T02:00:57;99926.91;;;7.57;57.42
66196;BME280;53000;45.182;5.736;2023-12-20T02:03:23;99922.34;;;7.57;57.41
66196;BME280;53000;45.182;5.736;2023-12-20T02:05:49;99926.06;;;7.56;57.22
66196;BME280;53000;45.182;5.736;2023-12-20T02:08:15;99922.75;;;7.53;57.27
66196;BME280;53000;45.182;5.736;2023-12-20T02:10:40;99933.66;;;7.51;57.53
66196;BME280;53000;45.182;5.736;2023-12-20T02:13:07;99926.44;;;7.52;58.02
66196;BME280;53000;45.182;5.736;2023-12-20T02:15:32;99923.47;;;7.55;58.07
66196;BME280;53000;45.182;5.736;2023-12-20T02:17:57;99922.94;;;7.61;57.68
66196;BME280;53000;45.182;5.736;2023-12-20T02:20:23;99922.53;;;7.66;57.78
66196;BME280;53000;45.182;5.736;2023-12-20T02:22:48;99911.34;;;7.70;57.32
66196;BME280;53000;45.182;5.736;2023-12-20T02:25:14;99908.25;;;7.75;57.92
66196;BME280;53000;45.182;5.736;2023-12-20T02:27:39;99902.84;;;7.75;57.59
66196;BME280;53000;45.182;5.736;2023-12-20T02:30:06;99905.84;;;7.82;57.87
66196;BME280;53000;45.182;5.736;2023-12-20T02:32:31;99895.94;;;7.82;57.94
66196;BME280;53000;45.182;5.736;2023-12-20T02:34:57;99901.47;;;7.81;57.43
66196;BME280;53000;45.182;5.736;2023-12-20T02:37:23;99877.63;;;7.76;57.56
66196;BME280;53000;45.182;5.736;2023-12-20T02:39:48;99867.41;;;7.79;57.80
66196;BME280;53000;45.182;5.736;2023-12-20T02:42:13;99860.47;;;7.77;57.70
66196;BME280;53000;45.182;5.736;2023-12-20T02:44:39;99864.00;;;7.77;57.55
66196;BME280;53000;45.182;5.736;2023-12-20T02:47:04;99859.06;;;7.83;57.48
66196;BME280;53000;45.182;5.736;2023-12-20T02:49:29;99857.81;;;7.87;57.49
66196;BME280;53000;45.182;5.736;2023-12-20T02:51:55;99850.13;;;7.82;58.32
66196;BME280;53000;45.182;5.736;2023-12-20T02:54:20;99864.47;;;7.83;57.60
66196;BME280;53000;45.182;5.736;2023-12-20T02:56:46;99859.06;;;7.83;57.19
66196;BME280;53000;45.182;5.736;2023-12-20T02:59:11;99859.78;;;7.85;57.94
66196;BME280;53000;45.182;5.736;2023-12-20T03:01:46;99851.56;;;7.86;57.29
66196;BME280;53000;45.182;5.736;2023-12-20T03:04:12;99842.78;;;7.84;58.50
66196;BME280;53000;45.182;5.736;2023-12-20T03:06:38;99839.06;;;7.85;58.00
66196;BME280;53000;45.182;5.736;2023-12-20T03:09:03;99848.28;;;7.92;57.84
66196;BME280;53000;45.182;5.736;2023-12-20T03:11:29;99846.31;;;7.94;57.63
66196;BME280;53000;45.182;5.736;2023-12-20T03:13:55;99847.19;;;7.95;57.77
66196;BME280;53000;45.182;5.736;2023-12-20T03:16:21;99837.50;;;7.92;58.11
66196;BME280;53000;45.182;5.736;2023-12-20T03:18:46;99841.09;;;7.93;57.86
66196;BME280;53000;45.182;5.736;2023-12-20T03:21:12;99838.22;;;7.94;58.09
66196;BME280;53000;45.182;5.736;2023-12-20T03:23:37;99839.66;;;7.98;57.86
66196;BME280;53000;45.182;5.736;2023-12-20T03:26:03;99831.44;;;8.00;57.78
66196;BME280;53000;45.182;5.736;2023-12-20T03:28:29;99827.59;;;8.03;57.85
66196;BME280;53000;45.182;5.736;2023-12-20T03:30:54;99818.53;;;8.04;57.22
66196;BME280;53000;45.182;5.736;2023-12-20T03:33:20;99794.97;;;7.86;57.53
66196;BME280;53000;45.182;5.736;2023-12-20T03:35:45;99811.56;;;8.01;57.42
66196;BME280;53000;45.182;5.736;2023-12-20T03:38:10;99809.44;;;8.05;57.88
66196;BME280;53000;45.182;5.736;2023-12-20T03:40:36;99812.59;;;8.10;57.87
66196;BME280;53000;45.182;5.736;2023-12-20T03:43:01;99802.06;;;8.07;57.41
66196;BME280;53000;45.182;5.736;2023-12-20T03:45:26;99813.28;;;8.12;58.13
66196;BME280;53000;45.182;5.736;2023-12-20T03:47:52;99814.69;;;8.16;57.54
66196;BME280;53000;45.182;5.736;2023-12-20T03:50:25;99812.88;;;8.16;57.28
66196;BME280;53000;45.182;5.736;2023-12-20T03:52:50;99817.41;;;8.16;57.68
66196;BME280;53000;45.182;5.736;2023-12-20T03:55:16;99822.53;;;8.19;57.25
66196;BME280;53000;45.182;5.736;2023-12-20T03:57:41;99817.97;;;8.19;57.39
66196;BME280;53000;45.182;5.736;2023-12-20T04:00:08;99807.91;;;8.22;57.26
66196;BME280;53000;45.182;5.736;2023-12-20T04:02:40;99814.84;;;8.24;57.35
66196;BME280;53000;45.182;5.736;2023-12-20T04:05:06;99800.22;;;8.27;57.19
66196;BME280;53000;45.182;5.736;2023-12-20T04:07:32;99804.50;;;8.29;57.05
66196;BME280;53000;45.182;5.736;2023-12-20T04:09:58;99803.50;;;8.30;56.93
66196;BME280;53000;45.182;5.736;2023-12-20T04:12:23;99803.78;;;8.37;56.92
66196;BME280;53000;45.182;5.736;2023-12-20T04:14:48;99799.41;;;8.36;56.87
66196;BME280;53000;45.182;5.736;2023-12-20T04:17:15;99799.81;;;8.31;56.71
66196;BME280;53000;45.182;5.736;2023-12-20T04:19:41;99792.13;;;8.27;56.97
66196;BME280;53000;45.182;5.736;2023-12-20T04:22:07;99788.72;;;8.25;56.99
66196;BME280;53000;45.182;5.736;2023-12-20T04:24:32;99792.44;;;8.24;57.02
66196;BME280;53000;45.182;5.736;2023-12-20T04:26:57;99782.78;;;8.21;56.75
66196;BME280;53000;45.182;5.736;2023-12-20T04:29:23;99769.56;;;8.18;57.17
66196;BME280;53000;45.182;5.736;2023-12-20T04:31:48;99772.53;;;8.25;56.42
66196;BME280;53000;45.182;5.736;2023-12-20T04:34:16;99778.94;;;8.24;56.60
66196;BME280;53000;45.182;5.736;2023-12-20T04:36:42;99777.53;;;8.29;56.51
66196;BME280;53000;45.182;5.736;2023-12-20T04:39:07;99791.16;;;8.28;56.75
66196;BME280;53000;45.182;5.736;2023-12-20T04:41:33;99782.22;;;8.27;57.31
66196;BME280;53000;45.182;5.736;2023-12-20T04:43:58;99783.91;;;8.28;57.54
66196;BME280;53000;45.182;5.736;2023-12-20T04:46:23;99785.91;;;8.26;57.90
66196;BME280;53000;45.182;5.736;2023-12-20T04:48:49;99780.94;;;8.22;58.17
66196;BME280;53000;45.182;5.736;2023-12-20T04:51:14;99780.81;;;8.23;58.78
66196;BME280;53000;45.182;5.736;2023-12-20T04:53:39;99791.72;;;8.22;58.36
66196;BME280;53000;45.182;5.736;2023-12-20T04:56:05;99787.03;;;8.24;58.87
66196;BME280;53000;45.182;5.736;2023-12-20T04:58:30;99792.00;;;8.28;58.28
66196;BME280;53000;45.182;5.736;2023-12-20T05:00:56;99784.22;;;8.25;59.35
66196;BME280;53000;45.182;5.736;2023-12-20T05:03:21;99787.16;;;8.22;59.70
66196;BME280;53000;45.182;5.736;2023-12-20T05:05:46;99779.25;;;8.21;59.07
66196;BME280;53000;45.182;5.736;2023-12-20T05:08:12;99772.44;;;8.16;59.96
66196;BME280;53000;45.182;5.736;2023-12-20T05:10:37;99763.63;;;8.05;59.13
66196;BME280;53000;45.182;5.736;2023-12-20T05:13:03;99765.59;;;7.93;59.85
66196;BME280;53000;45.182;5.736;2023-12-20T05:15:28;99781.34;;;7.88;60.78
66196;BME280;53000;45.182;5.736;2023-12-20T05:17:53;99780.50;;;7.87;60.46
66196;BME280;53000;45.182;5.736;2023-12-20T05:20:19;99780.06;;;7.92;60.37
66196;BME280;53000;45.182;5.736;2023-12-20T05:22:44;99770.84;;;7.94;60.06
66196;BME280;53000;45.182;5.736;2023-12-20T05:25:10;99773.41;;;7.86;60.61
66196;BME280;53000;45.182;5.736;2023-12-20T05:27:35;99774.22;;;7.77;60.30
66196;BME280;53000;45.182;5.736;2023-12-20T05:30:01;99781.47;;;7.76;61.84
66196;BME280;53000;45.182;5.736;2023-12-20T05:32:26;99769.97;;;7.74;61.05
66196;BME280;53000;45.182;5.736;2023-12-20T05:34:51;99778.63;;;7.78;61.40
66196;BME280;53000;45.182;5.736;2023-12-20T05:37:17;99773.97;;;7.80;61.10
66196;BME280;53000;45.182;5.736;2023-12-20T05:39:42;99774.81;;;7.81;61.26
66196;BME280;53000;45.182;5.736;2023-12-20T05:42:07;99782.34;;;7.87;61.23
66196;BME280;53000;45.182;5.736;2023-12-20T05:44:33;99781.06;;;7.91;60.79
66196;BME280;53000;45.182;5.736;2023-12-20T05:46:58;99770.00;;;7.94;61.07
66196;BME280;53000;45.182;5.736;2023-12-20T05:49:23;99781.50;;;7.96;61.74
66196;BME280;53000;45.182;5.736;2023-12-20T05:51:49;99783.22;;;7.97;61.05
66196;BME280;53000;45.182;5.736;2023-12-20T05:54:16;99780.50;;;7.97;61.24
66196;BME280;53000;45.182;5.736;2023-12-20T05:56:41;99781.91;;;8.01;60.66
66196;BME280;53000;45.182;5.736;2023-12-20T05:59:06;99786.44;;;8.01;61.58
66196;BME280;53000;45.182;5.736;2023-12-20T06:01:32;99775.25;;;7.95;61.02
66196;BME280;53000;45.182;5.736;2023-12-20T06:03:57;99784.31;;;7.94;61.09
66196;BME280;53000;45.182;5.736;2023-12-20T06:06:23;99784.06;;;7.97;61.44
66196;BME280;53000;45.182;5.736;2023-12-20T06:08:48;99788.59;;;7.97;60.93
66196;BME280;53000;45.182;5.736;2023-12-20T06:11:14;99789.31;;;7.99;60.72
66196;BME280;53000;45.182;5.736;2023-12-20T06:13:40;99788.72;;;7.95;60.57
66196;BME280;53000;45.182;5.736;2023-12-20T06:16:05;99792.56;;;7.93;60.97
66196;BME280;53000;45.182;5.736;2023-12-20T06:18:31;99780.91;;;7.92;60.31
66196;BME280;53000;45.182;5.736;2023-12-20T06:20:57;99786.59;;;7.89;61.18
66196;BME280;53000;45.182;5.736;2023-12-20T06:23:22;99775.38;;;7.84;60.70
66196;BME280;53000;45.182;5.736;2023-12-20T06:25:47;99780.06;;;7.82;61.10
66196;BME280;53000;45.182;5.736;2023-12-20T06:28:13;99782.75;;;7.82;61.23
66196;BME280;53000;45.182;5.736;2023-12-20T06:30:40;99775.78;;;7.79;61.41
66196;BME280;53000;45.182;5.736;2023-12-20T06:33:05;99778.34;;;7.81;61.78
66196;BME280;53000;45.182;5.736;2023-12-20T06:35:32;99775.06;;;7.77;60.77
66196;BME280;53000;45.182;5.736;2023-12-20T06:37:57;99769.69;;;7.68;62.22
66196;BME280;53000;45.182;5.736;2023-12-20T06:40:22;99772.38;;;7.68;61.98
66196;BME280;53000;45.182;5.736;2023-12-20T06:42:48;99773.50;;;7.65;61.58
66196;BME280;53000;45.182;5.736;2023-12-20T06:45:13;99769.94;;;7.65;62.83
66196;BME280;53000;45.182;5.736;2023-12-20T06:47:39;99771.66;;;7.66;62.57
66196;BME280;53000;45.182;5.736;2023-12-20T06:50:05;99773.94;;;7.70;62.76
66196;BME280;53000;45.182;5.736;2023-12-20T06:52:30;99770.41;;;7.70;61.93
66196;BME280;53000;45.182;5.736;2023-12-20T06:54:56;99771.66;;;7.66;62.11
66196;BME280;53000;45.182;5.736;2023-12-20T06:57:21;99779.31;;;7.70;62.18
66196;BME280;53000;45.182;5.736;2023-12-20T06:59:46;99769.25;;;7.72;62.72
66196;BME280;53000;45.182;5.736;2023-12-20T07:02:12;99773.38;;;7.76;62.57
66196;BME280;53000;45.182;5.736;2023-12-20T07:04:41;99770.56;;;7.78;62.13
66196;BME280;53000;45.182;5.736;2023-12-20T07:07:06;99782.19;;;7.78;62.17
66196;BME280;53000;45.182;5.736;2023-12-20T07:09:32;99784.16;;;7.76;62.83
66196;BME280;53000;45.182;5.736;2023-12-20T07:11:57;99788.88;;;7.84;62.57
66196;BME280;53000;45.182;5.736;2023-12-20T07:14:23;99793.81;;;7.79;61.97
66196;BME280;53000;45.182;5.736;2023-12-20T07:16:49;99801.63;;;7.82;62.84
66196;BME280;53000;45.182;5.736;2023-12-20T07:19:14;99806.59;;;7.87;63.27
66196;BME280;53000;45.182;5.736;2023-12-20T07:21:39;99799.34;;;7.87;62.81
66196;BME280;53000;45.182;5.736;2023-12-20T07:24:05;99801.91;;;7.89;62.74
66196;BME280;53000;45.182;5.736;2023-12-20T07:26:30;99800.19;;;7.88;62.57
66196;BME280;53000;45.182;5.736;2023-12-20T07:28:56;99791.41;;;7.86;62.60
66196;BME280;53000;45.182;5.736;2023-12-20T07:31:21;99803.19;;;7.94;62.40
66196;BME280;53000;45.182;5.736;2023-12-20T07:33:46;99794.38;;;7.92;63.07
66196;BME280;53000;45.182;5.736;2023-12-20T07:36:12;99788.16;;;7.92;62.04
66196;BME280;53000;45.182;5.736;2023-12-20T07:38:38;99802.75;;;7.89;62.87
66196;BME280;53000;45.182;5.736;2023-12-20T07:41:03;99799.06;;;7.90;63.11
66196;BME280;53000;45.182;5.736;2023-12-20T07:43:28;99802.63;;;7.91;62.42
66196;BME280;53000;45.182;5.736;2023-12-20T07:45:54;99796.53;;;7.89;62.73
66196;BME280;53000;45.182;5.736;2023-12-20T07:48:19;99791.13;;;7.89;62.82
66196;BME280;53000;45.182;5.736;2023-12-20T07:50:44;99801.34;;;7.85;63.10
66196;BME280;53000;45.182;5.736;2023-12-20T07:53:10;99812.53;;;7.90;63.13
66196;BME280;53000;45.182;5.736;2023-12-20T07:55:35;99813.25;;;7.92;63.20
66196;BME280;53000;45.182;5.736;2023-12-20T07:58:00;99803.34;;;7.93;62.81
66196;BME280;53000;45.182;5.736;2023-12-20T08:00:27;99810.56;;;7.92;62.48
66196;BME280;53000;45.182;5.736;2023-12-20T08:02:52;99805.59;;;7.88;62.76
66196;BME280;53000;45.182;5.736;2023-12-20T08:05:17;99815.53;;;7.87;63.32
66196;BME280;53000;45.182;5.736;2023-12-20T08:07:43;99809.28;;;7.87;63.13
66196;BME280;53000;45.182;5.736;2023-12-20T08:10:08;99805.16;;;7.83;63.56
66196;BME280;53000;45.182;5.736;2023-12-20T08:12:34;99816.78;;;7.83;64.21
66196;BME280;53000;45.182;5.736;2023-12-20T08:14:59;99816.53;;;7.86;63.37
66196;BME280;53000;45.182;5.736;2023-12-20T08:17:25;99811.97;;;7.87;63.85
66196;BME280;53000;45.182;5.736;2023-12-20T08:19:51;99823.06;;;7.93;64.25
66196;BME280;53000;45.182;5.736;2023-12-20T08:22:16;99827.72;;;7.91;63.94
66196;BME280;53000;45.182;5.736;2023-12-20T08:24:41;99822.34;;;7.91;63.43
66196;BME280;53000;45.182;5.736;2023-12-20T08:27:07;99820.63;;;7.90;64.23
66196;BME280;53000;45.182;5.736;2023-12-20T08:29:32;99823.59;;;7.87;64.07
66196;BME280;53000;45.182;5.736;2023-12-20T08:31:59;99837.25;;;7.95;64.35
66196;BME280;53000;45.182;5.736;2023-12-20T08:34:24;99842.09;;;8.02;63.82
66196;BME280;53000;45.182;5.736;2023-12-20T08:36:50;99844.63;;;8.03;63.74
66196;BME280;53000;45.182;5.736;2023-12-20T08:39:16;99847.63;;;8.00;63.88
66196;BME280;53000;45.182;5.736;2023-12-20T08:41:42;99855.13;;;7.96;64.30
66196;BME280;53000;45.182;5.736;2023-12-20T08:44:08;99857.09;;;7.94;64.34
66196;BME280;53000;45.182;5.736;2023-12-20T08:46:33;99861.22;;;7.89;63.47
66196;BME280;53000;45.182;5.736;2023-12-20T08:48:59;99866.31;;;7.92;64.40
66196;BME280;53000;45.182;5.736;2023-12-20T08:51:25;99869.00;;;7.92;63.98
66196;BME280;53000;45.182;5.736;2023-12-20T08:53:51;99869.00;;;7.92;64.85
66196;BME280;53000;45.182;5.736;2023-12-20T08:56:16;99867.63;;;7.97;63.74
66196;BME280;53000;45.182;5.736;2023-12-20T08:58:43;99869.19;;;8.00;64.14
66196;BME280;53000;45.182;5.736;2023-12-20T09:01:08;99871.59;;;8.03;63.81
66196;BME280;53000;45.182;5.736;2023-12-20T09:03:34;99863.38;;;8.05;63.91
66196;BME280;53000;45.182;5.736;2023-12-20T09:05:59;99864.38;;;8.04;63.68
66196;BME280;53000;45.182;5.736;2023-12-20T09:08:25;99866.06;;;8.05;64.42
66196;BME280;53000;45.182;5.736;2023-12-20T09:10:50;99875.59;;;8.09;64.24
66196;BME280;53000;45.182;5.736;2023-12-20T09:13:15;99871.50;;;8.14;63.99
66196;BME280;53000;45.182;5.736;2023-12-20T09:15:41;99865.38;;;8.12;64.17
66196;BME280;53000;45.182;5.736;2023-12-20T09:18:06;99865.38;;;8.12;64.25
66196;BME280;53000;45.182;5.736;2023-12-20T09:20:32;99874.47;;;8.21;64.01
66196;BME280;53000;45.182;5.736;2023-12-20T09:22:58;99866.09;;;8.24;63.92
66196;BME280;53000;45.182;5.736;2023-12-20T09:25:23;99869.78;;;8.33;64.22
66196;BME280;53000;45.182;5.736;2023-12-20T09:27:49;99872.94;;;8.38;64.26
66196;BME280;53000;45.182;5.736;2023-12-20T09:30:14;99875.09;;;8.44;63.99
66196;BME280;53000;45.182;5.736;2023-12-20T09:32:39;99875.94;;;8.45;64.24
66196;BME280;53000;45.182;5.736;2023-12-20T09:35:05;99871.41;;;8.45;63.50
66196;BME280;53000;45.182;5.736;2023-12-20T09:37:31;99870.56;;;8.45;64.48
66196;BME280;53000;45.182;5.736;2023-12-20T09:39:57;99882.34;;;8.53;64.57
66196;BME280;53000;45.182;5.736;2023-12-20T09:44:58;99882.59;;;8.50;64.15
66196;BME280;53000;45.182;5.736;2023-12-20T09:47:26;99886.19;;;8.51;64.27
66196;BME280;53000;45.182;5.736;2023-12-20T09:49:52;99883.19;;;8.44;63.84
66196;BME280;53000;45.182;5.736;2023-12-20T09:52:18;99883.56;;;8.39;64.86
66196;BME280;53000;45.182;5.736;2023-12-20T09:54:45;99893.13;;;8.53;64.72
66196;BME280;53000;45.182;5.736;2023-12-20T09:57:13;99879.78;;;8.62;64.48
66196;BME280;53000;45.182;5.736;2023-12-20T09:59:38;99891.13;;;8.65;64.37
66196;BME280;53000;45.182;5.736;2023-12-20T10:02:10;99865.16;;;8.64;64.74
66196;BME280;53000;45.182;5.736;2023-12-20T10:04:42;99860.31;;;8.77;64.67
66196;BME280;53000;45.182;5.736;2023-12-20T10:07:10;99879.47;;;8.94;64.38
66196;BME280;53000;45.182;5.736;2023-12-20T10:09:36;99871.53;;;9.02;64.13
66196;BME280;53000;45.182;5.736;2023-12-20T10:12:02;99872.22;;;9.04;64.38
66196;BME280;53000;45.182;5.736;2023-12-20T10:14:27;99867.19;;;9.19;63.79
66196;BME280;53000;45.182;5.736;2023-12-20T10:16:53;99870.59;;;9.31;64.15
66196;BME280;53000;45.182;5.736;2023-12-20T10:19:19;99865.69;;;9.44;63.49
66196;BME280;53000;45.182;5.736;2023-12-20T10:21:45;99868.91;;;9.57;63.00
66196;BME280;53000;45.182;5.736;2023-12-20T10:24:17;99855.75;;;9.72;62.55
66196;BME280;53000;45.182;5.736;2023-12-20T10:26:42;99858.53;;;9.90;62.79
66196;BME280;53000;45.182;5.736;2023-12-20T10:29:07;99846.44;;;10.12;62.95
66196;BME280;53000;45.182;5.736;2023-12-20T10:31:34;99841.94;;;10.31;62.33
66196;BME280;53000;45.182;5.736;2023-12-20T10:34:02;99848.56;;;10.36;61.67
66196;BME280;53000;45.182;5.736;2023-12-20T10:36:34;99842.13;;;10.55;61.92
66196;BME280;53000;45.182;5.736;2023-12-20T10:39:00;99820.81;;;10.96;62.47
66196;BME280;53000;45.182;5.736;2023-12-20T10:41:28;99830.03;;;11.72;61.45
66196;BME280;53000;45.182;5.736;2023-12-20T10:44:01;99831.75;;;12.48;60.32
66196;BME280;53000;45.182;5.736;2023-12-20T10:46:28;99819.69;;;13.17;58.86
66196;BME280;53000;45.182;5.736;2023-12-20T10:48:55;99819.66;;;13.81;58.42
66196;BME280;53000;45.182;5.736;2023-12-20T10:51:22;99812.13;;;14.22;55.26
66196;BME280;53000;45.182;5.736;2023-12-20T10:53:50;99799.16;;;14.24;55.33
66196;BME280;53000;45.182;5.736;2023-12-20T10:56:17;99813.91;;;14.38;55.12
66196;BME280;53000;45.182;5.736;2023-12-20T10:58:50;99803.56;;;14.57;55.32
66196;BME280;53000;45.182;5.736;2023-12-20T11:01:17;99799.44;;;14.61;54.36
66196;BME280;53000;45.182;5.736;2023-12-20T11:03:53;99799.72;;;14.43;53.93
66196;BME280;53000;45.182;5.736;2023-12-20T11:09:23;99810.91;;;14.02;54.36
66196;BME280;53000;45.182;5.736;2023-12-20T11:14:41;99802.44;;;13.57;54.33
66196;BME280;53000;45.182;5.736;2023-12-20T11:17:10;99773.81;;;13.22;53.96
66196;BME280;53000;45.182;5.736;2023-12-20T11:22:25;99792.94;;;12.73;54.82
66196;BME280;53000;45.182;5.736;2023-12-20T11:24:52;99768.47;;;12.40;55.13
66196;BME280;53000;45.182;5.736;2023-12-20T11:27:19;99782.38;;;12.20;55.64
66196;BME280;53000;45.182;5.736;2023-12-20T11:29:52;99786.09;;;12.11;56.01
66196;BME280;53000;45.182;5.736;2023-12-20T11:37:36;99792.53;;;11.59;56.94
66196;BME280;53000;45.182;5.736;2023-12-20T11:40:05;99789.59;;;11.44;56.92
66196;BME280;53000;45.182;5.736;2023-12-20T11:42:42;99785.13;;;11.35;57.26
66196;BME280;53000;45.182;5.736;2023-12-20T11:45:09;99776.97;;;11.27;57.44
66196;BME280;53000;45.182;5.736;2023-12-20T11:47:35;99773.56;;;11.25;57.88
66196;BME280;53000;45.182;5.736;2023-12-20T11:50:01;99761.66;;;11.18;57.91
66196;BME280;53000;45.182;5.736;2023-12-20T11:52:29;99767.28;;;11.16;58.10
66196;BME280;53000;45.182;5.736;2023-12-20T11:54:55;99746.50;;;10.99;58.28
66196;BME280;53000;45.182;5.736;2023-12-20T11:57:20;99767.53;;;11.05;59.16
66196;BME280;53000;45.182;5.736;2023-12-20T11:59:46;99744.91;;;10.88;58.83
66196;BME280;53000;45.182;5.736;2023-12-20T12:02:12;99767.13;;;10.92;59.25
66196;BME280;53000;45.182;5.736;2023-12-20T12:04:37;99763.16;;;10.86;58.66
66196;BME280;53000;45.182;5.736;2023-12-20T12:07:03;99765.59;;;10.89;59.92
66196;BME280;53000;45.182;5.736;2023-12-20T12:09:28;99762.34;;;10.85;58.96
66196;BME280;53000;45.182;5.736;2023-12-20T12:11:54;99754.53;;;10.82;58.73
66196;BME280;53000;45.182;5.736;2023-12-20T12:14:23;99741.41;;;10.70;59.23
66196;BME280;53000;45.182;5.736;2023-12-20T12:16:49;99741.41;;;10.70;59.78
66196;BME280;53000;45.182;5.736;2023-12-20T12:19:22;99731.59;;;10.69;59.73
66196;BME280;53000;45.182;5.736;2023-12-20T12:21:49;99751.34;;;10.87;59.99
66196;BME280;53000;45.182;5.736;2023-12-20T12:24:14;99756.22;;;10.83;60.69
66196;BME280;53000;45.182;5.736;2023-12-20T12:26:40;99743.38;;;10.85;60.41
66196;BME280;53000;45.182;5.736;2023-12-20T12:29:08;99759.63;;;10.85;61.06
66196;BME280;53000;45.182;5.736;2023-12-20T12:31:34;99749.41;;;10.79;60.49
66196;BME280;53000;45.182;5.736;2023-12-20T12:34:01;99750.50;;;10.87;60.10
66196;BME280;53000;45.182;5.736;2023-12-20T12:36:28;99752.19;;;10.88;60.23
66196;BME280;53000;45.182;5.736;2023-12-20T12:38:56;99749.97;;;10.83;60.92
66196;BME280;53000;45.182;5.736;2023-12-20T12:41:21;99753.84;;;10.80;60.58
66196;BME280;53000;45.182;5.736;2023-12-20T12:43:47;99749.59;;;10.78;60.19
66196;BME280;53000;45.182;5.736;2023-12-20T12:46:12;99745.88;;;10.79;60.12
66196;BME280;53000;45.182;5.736;2023-12-20T12:48:38;99756.22;;;10.83;60.24
66196;BME280;53000;45.182;5.736;2023-12-20T12:51:04;99758.94;;;10.83;59.20
66196;BME280;53000;45.182;5.736;2023-12-20T12:53:29;99738.09;;;10.76;59.48
66196;BME280;53000;45.182;5.736;2023-12-20T12:55:54;99755.03;;;10.86;60.31
66196;BME280;53000;45.182;5.736;2023-12-20T12:58:20;99750.28;;;10.80;60.54
66196;BME280;53000;45.182;5.736;2023-12-20T13:00:46;99743.31;;;10.77;59.83
66196;BME280;53000;45.182;5.736;2023-12-20T13:03:11;99735.84;;;10.71;59.49
66196;BME280;53000;45.182;5.736;2023-12-20T13:05:36;99735.38;;;10.76;60.54
66196;BME280;53000;45.182;5.736;2023-12-20T13:08:03;99731.69;;;10.85;60.35
66196;BME280;53000;45.182;5.736;2023-12-20T13:10:28;99738.00;;;10.94;59.61
66196;BME280;53000;45.182;5.736;2023-12-20T13:12:54;99744.72;;;11.16;60.21
66196;BME280;53000;45.182;5.736;2023-12-20T13:15:19;99737.84;;;11.30;59.57
66196;BME280;53000;45.182;5.736;2023-12-20T13:17:44;99737.91;;;11.46;59.49
66196;BME280;53000;45.182;5.736;2023-12-20T13:20:11;99734.81;;;11.83;58.80